Time;durP1;ratioP1;P1;durP2;ratioP2;P2;SDS_P1;SDS_P2;PMS_P1;PMS_P2;Temp;Humidity;BMP_temperature;BMP_pressure;BME280_temperature;BME280_humidity;BME280_pressure;Samples;Min_cycle;Max_cycle;Signal;HPM_P1;HPM_P2
2022/01/18 00:02:07;;;;;;;9.40;7.00;;;4.10;99.90;;;4.78;100.00;100063.19;5060240;28;20460;-77
2022/01/18 00:04:38;;;;;;;9.30;6.60;;;4.10;99.90;;;4.72;100.00;100067.00;5054120;28;20496;-78
2022/01/18 00:07:08;;;;;;;14.43;8.10;;;3.90;99.90;;;4.72;100.00;100058.41;5053635;28;20473;-77
2022/01/18 00:09:38;;;;;;;10.70;7.07;;;3.90;99.90;;;4.66;100.00;100063.97;5055942;28;21029;-77
2022/01/18 00:12:31;;;;;;;13.17;7.17;;;3.80;99.90;;;4.58;100.00;100061.91;5053694;28;20463;-78
2022/01/18 00:15:19;;;;;;;14.20;6.63;;;3.70;99.90;;;4.56;100.00;100067.16;5053195;28;20469;-77
2022/01/18 00:17:54;;;;;;;12.03;6.97;;;3.80;99.90;;;4.47;100.00;100065.19;5054154;28;20579;-77
2022/01/18 00:20:35;;;;;;;13.40;7.27;;;3.60;99.90;;;4.39;100.00;100067.41;5053016;28;20469;-77
2022/01/18 00:23:05;;;;;;;15.50;8.03;;;3.50;99.90;;;4.30;100.00;100077.53;5053495;28;20471;-77
2022/01/18 00:25:37;;;;;;;12.20;7.60;;;3.40;99.90;;;4.34;100.00;100076.44;5053401;28;20478;-78
2022/01/18 00:28:07;;;;;;;13.10;7.30;;;3.50;99.90;;;4.34;100.00;100076.44;5050166;28;20483;-77
2022/01/18 00:31:03;;;;;;;14.37;8.30;;;3.50;99.90;;;4.29;100.00;100083.63;5053775;28;20476;-77
2022/01/18 00:33:55;;;;;;;13.93;8.13;;;3.40;99.90;;;4.24;100.00;100089.09;5050932;28;20464;-77
2022/01/18 00:36:54;;;;;;;15.30;7.63;;;3.30;99.90;;;4.26;100.00;100087.25;5052023;28;20529;-77
2022/01/18 00:39:24;;;;;;;13.60;7.90;;;3.40;99.90;;;4.28;100.00;100085.41;5054603;28;20471;-77
2022/01/18 00:41:53;;;;;;;19.27;7.97;;;3.50;99.90;;;4.22;100.00;100083.19;5051670;28;20488;-77
2022/01/18 00:44:37;;;;;;;16.43;7.80;;;3.40;99.90;;;4.26;100.00;100092.44;5053068;28;20506;-77
2022/01/18 00:47:09;;;;;;;13.43;7.93;;;3.40;99.90;;;4.29;100.00;100088.81;5051605;28;20567;-77
2022/01/18 00:49:43;;;;;;;13.70;7.77;;;3.40;99.90;;;4.28;100.00;100085.41;5052696;28;20464;-77
2022/01/18 00:52:17;;;;;;;13.13;7.90;;;3.40;99.90;;;4.19;100.00;100083.41;5051065;28;20552;-77
2022/01/18 00:54:47;;;;;;;14.50;7.40;;;3.40;99.90;;;4.15;100.00;100092.28;5051320;28;20463;-77
2022/01/18 00:57:16;;;;;;;14.90;7.20;;;3.30;99.90;;;4.15;100.00;100099.22;5054049;28;20508;-77
2022/01/18 00:59:47;;;;;;;16.33;8.13;;;3.30;99.90;;;4.16;100.00;100095.69;5051808;28;20475;-77
2022/01/18 01:02:19;;;;;;;14.43;7.10;;;3.30;99.90;;;4.19;100.00;100101.53;5051046;28;20474;-78
2022/01/18 01:04:49;;;;;;;12.17;6.17;;;3.30;99.90;;;4.13;100.00;100109.66;5051951;28;21314;-77
2022/01/18 01:07:24;;;;;;;13.77;7.50;;;3.20;99.90;;;4.16;100.00;100111.22;5053167;28;20457;-78
2022/01/18 01:09:55;;;;;;;13.93;7.37;;;3.30;99.90;;;4.15;100.00;100110.41;5055187;28;20962;-77
2022/01/18 01:12:28;;;;;;;11.57;6.83;;;3.30;99.90;;;4.19;100.00;100106.69;5052844;28;20461;-77
2022/01/18 01:15:04;;;;;;;13.90;7.27;;;3.50;99.90;;;4.21;100.00;100109.19;5052319;28;20490;-77
2022/01/18 01:17:44;;;;;;;11.93;7.27;;;3.40;99.90;;;4.21;100.00;100115.19;5052122;28;20500;-77
2022/01/18 01:42:58;;;;;;;13.83;7.70;;;3.20;99.90;;;4.12;100.00;100115.78;5051535;28;20547;-77
2022/01/18 01:45:30;;;;;;;13.33;6.73;;;3.30;99.90;;;4.12;100.00;100120.13;5050659;28;20483;-77
2022/01/18 01:48:00;;;;;;;11.67;6.70;;;3.40;99.90;;;4.12;100.00;100115.78;5052174;28;20556;-77
2022/01/18 01:50:42;;;;;;;11.27;6.63;;;3.40;99.90;;;4.10;100.00;100117.59;5047824;28;20475;-78
2022/01/18 01:53:14;;;;;;;22.60;7.40;;;3.30;99.90;;;4.06;100.00;100110.97;5053021;28;20461;-77
2022/01/18 01:55:55;;;;;;;10.67;7.30;;;3.40;99.90;;;4.04;100.00;100107.63;5050903;28;20468;-77
2022/01/18 01:58:27;;;;;;;15.63;7.70;;;3.20;99.90;;;4.08;100.00;100114.28;5050771;28;20469;-77
2022/01/18 02:01:03;;;;;;;13.27;6.93;;;3.40;99.90;;;4.10;100.00;100104.66;5049922;28;20468;-77
2022/01/18 02:03:33;;;;;;;13.90;7.27;;;3.50;99.90;;;4.10;100.00;100112.44;5050082;28;20468;-77
2022/01/18 02:06:03;;;;;;;9.47;6.37;;;3.30;99.90;;;4.12;100.00;100105.41;5052905;28;20586;-77
2022/01/18 02:08:32;;;;;;;12.10;7.13;;;3.30;99.90;;;4.13;100.00;100095.91;5054818;28;20463;-77
2022/01/18 02:11:04;;;;;;;10.90;7.67;;;3.30;99.90;;;4.11;100.00;100092.56;5053072;28;20472;-77
2022/01/18 02:13:33;;;;;;;10.87;6.90;;;3.30;99.90;;;4.05;100.00;100086.84;5054282;28;20542;-77
2022/01/18 02:21:45;;;;;;;12.77;6.87;;;3.30;99.90;;;4.06;100.00;100087.69;5052757;28;20514;-77
2022/01/18 02:21:53;;;;;;;14.67;7.33;;;3.40;99.90;;;4.13;100.00;100091.53;5053737;28;20471;-77
2022/01/18 02:24:24;;;;;;;11.53;7.20;;;3.30;99.90;;;4.12;100.00;100096.81;5055895;28;20495;-77
2022/01/18 02:26:54;;;;;;;10.57;7.10;;;3.30;99.90;;;4.12;100.00;100089.88;5057536;28;20463;-77
2022/01/18 02:29:23;;;;;;;11.57;7.37;;;3.30;99.90;;;4.10;100.00;100075.34;5056434;28;20467;-77
2022/01/18 02:31:54;;;;;;;16.03;8.50;;;3.20;99.90;;;4.14;100.00;100082.84;5054977;28;20514;-77
2022/01/18 02:34:24;;;;;;;14.17;7.87;;;3.30;99.90;;;4.14;100.00;100087.19;5054420;28;20567;-77
2022/01/18 02:36:57;;;;;;;11.90;6.87;;;3.30;99.90;;;4.08;100.00;100078.06;5051869;28;20491;-78
2022/01/18 02:39:28;;;;;;;12.57;7.00;;;3.30;99.90;;;4.11;100.00;100093.38;5056086;28;20471;-77
2022/01/18 02:42:02;;;;;;;11.10;6.57;;;3.30;99.90;;;4.14;100.00;100089.78;5056745;28;20469;-77
2022/01/18 02:44:33;;;;;;;10.17;6.70;;;3.40;99.90;;;4.14;100.00;100085.44;5055384;28;20521;-78
2022/01/18 02:47:04;;;;;;;13.10;7.40;;;3.40;99.90;;;4.17;100.00;100090.41;5056743;28;20571;-77
2022/01/18 02:49:34;;;;;;;12.90;7.10;;;3.30;99.90;;;4.19;100.00;100090.34;5056743;28;20456;-77
2022/01/18 02:52:07;;;;;;;11.73;6.90;;;3.40;99.90;;;4.19;100.00;100091.16;5057634;28;20865;-77
2022/01/18 02:54:37;;;;;;;11.40;6.90;;;3.40;99.90;;;4.20;100.00;100089.41;5053485;28;20570;-77
2022/01/18 02:57:12;;;;;;;10.07;7.00;;;3.30;99.90;;;4.14;100.00;100092.34;5055019;28;20530;-77
2022/01/18 02:59:47;;;;;;;10.10;7.23;;;3.30;99.90;;;4.09;100.00;100090.09;5054084;28;20494;-77
2022/01/18 03:05:13;;;;;;;10.53;6.90;;;3.20;99.90;;;4.02;100.00;100093.97;5053644;28;20502;-78
2022/01/18 03:07:45;;;;;;;11.40;7.03;;;3.10;99.90;;;3.96;100.00;100096.91;5055423;28;20469;-77
2022/01/18 03:10:16;;;;;;;12.53;6.83;;;3.10;99.90;;;3.97;100.00;100101.19;5054376;28;20471;-77
2022/01/18 03:12:46;;;;;;;13.23;7.20;;;3.10;99.90;;;4.00;100.00;100100.97;5055825;28;20503;-77
2022/01/18 03:15:16;;;;;;;11.97;7.57;;;3.10;99.90;;;4.00;100.00;100106.16;5054960;28;20471;-78
2022/01/18 03:17:46;;;;;;;9.53;5.90;;;3.20;99.90;;;4.01;100.00;100097.47;5057894;28;20687;-77
2022/01/18 03:20:17;;;;;;;14.83;6.70;;;3.10;99.90;;;4.05;100.00;100098.97;5054067;28;20995;-77
2022/01/18 03:22:50;;;;;;;12.47;7.67;;;3.20;99.90;;;4.10;100.00;100102.06;5054632;28;20559;-77
2022/01/18 03:25:27;;;;;;;14.30;7.87;;;3.30;99.90;;;4.13;100.00;100111.44;5054119;28;20477;-77
2022/01/18 03:28:06;;;;;;;14.93;6.83;;;3.30;99.90;;;4.15;100.00;100110.41;5056807;28;20497;-77
2022/01/18 03:30:38;;;;;;;13.17;7.17;;;3.40;99.90;;;4.18;100.00;100110.22;5049930;28;20474;-77
2022/01/18 03:33:12;;;;;;;13.57;6.73;;;3.30;99.90;;;4.13;100.00;100103.66;5053134;28;20476;-77
2022/01/18 03:35:44;;;;;;;17.10;7.73;;;3.20;99.90;;;4.12;100.00;100104.59;5051889;28;20537;-77
2022/01/18 03:38:15;;;;;;;12.50;7.60;;;3.20;99.90;;;4.16;100.00;100106.06;5054806;28;20561;-77
2022/01/18 03:40:45;;;;;;;12.43;7.20;;;3.30;99.90;;;4.19;100.00;100101.53;5053930;28;20482;-77
2022/01/18 03:43:14;;;;;;;12.60;7.60;;;3.50;99.90;;;4.22;100.00;100098.72;5057318;28;20479;-78
2022/01/18 03:45:46;;;;;;;15.13;6.90;;;3.50;99.90;;;4.24;100.00;100106.38;5057842;28;20867;-77
2022/01/18 03:48:29;;;;;;;12.73;6.83;;;3.50;99.90;;;4.25;100.00;100101.13;5052167;28;20565;-77
2022/01/18 03:51:01;;;;;;;8.20;6.83;;;3.50;99.90;;;4.24;100.00;100099.47;5054304;28;20838;-78
2022/01/18 03:53:33;;;;;;;14.93;7.87;;;3.50;99.90;;;4.24;100.00;100094.28;5051750;28;20860;-78
2022/01/18 03:56:02;;;;;;;10.20;6.67;;;3.40;99.90;;;4.27;100.00;100088.91;5053674;28;20940;-77
2022/01/18 03:58:33;;;;;;;14.53;6.43;;;3.60;99.90;;;4.27;100.00;100094.06;5051367;28;20492;-78
2022/01/18 04:01:03;;;;;;;14.30;7.77;;;3.60;99.90;;;4.27;100.00;100088.91;5051826;28;20504;-78
2022/01/18 04:03:33;;;;;;;10.63;7.60;;;3.50;99.90;;;4.30;100.00;100093.91;5049908;28;21039;-78
2022/01/18 04:06:03;;;;;;;13.67;7.43;;;3.50;99.90;;;4.29;100.00;100102.59;5053024;28;20514;-78
2022/01/18 04:08:34;;;;;;;12.53;8.50;;;3.40;99.90;;;4.29;100.00;100107.78;5054951;28;20468;-78
2022/01/18 04:11:03;;;;;;;17.40;8.30;;;3.50;99.90;;;4.29;100.00;100112.97;5055021;28;20538;-77
2022/01/18 04:13:33;;;;;;;13.60;7.37;;;3.50;99.90;;;4.28;100.00;100108.69;5052531;28;20897;-78
2022/01/18 04:16:03;;;;;;;18.57;7.37;;;3.50;99.90;;;4.29;100.00;100112.13;5051995;28;20532;-78
2022/01/18 04:18:47;;;;;;;18.43;7.30;;;3.50;99.90;;;4.29;100.00;100122.47;5053982;28;20465;-78
2022/01/18 04:26:56;;;;;;;13.73;7.40;;;3.50;99.90;;;4.28;100.00;100092.31;5052003;28;20888;-78
2022/01/18 04:29:27;;;;;;;12.97;7.47;;;3.50;99.90;;;4.28;100.00;100100.94;5053090;28;20465;-78
2022/01/18 04:31:56;;;;;;;9.40;6.90;;;3.50;99.90;;;4.26;100.00;100095.03;5053276;28;20823;-77
2022/01/18 04:34:27;;;;;;;19.53;8.07;;;3.40;99.90;;;4.26;100.00;100101.97;5052026;28;20844;-78
2022/01/18 04:36:57;;;;;;;12.83;7.67;;;3.50;99.90;;;4.29;100.00;100092.25;5053855;28;20489;-78
2022/01/18 04:39:34;;;;;;;11.23;6.20;;;3.50;99.90;;;4.32;100.00;100097.22;5052271;28;20471;-78
2022/01/18 04:42:11;;;;;;;12.17;7.63;;;3.50;99.90;;;4.30;100.00;100090.50;5051890;28;21036;-81
2022/01/18 04:50:15;;;;;;;15.43;8.13;;;3.50;99.90;;;4.29;100.00;100086.22;5050511;28;20468;-78
2022/01/18 04:52:44;;;;;;;14.37;8.27;;;3.50;99.90;;;4.30;100.00;100093.06;5053652;28;20506;-79
2022/01/18 04:55:18;;;;;;;9.97;6.30;;;3.50;99.90;;;4.28;100.00;100093.16;5051648;28;20515;-80
2022/01/18 04:57:53;;;;;;;16.13;7.00;;;3.40;99.90;;;4.26;100.00;100092.44;5049846;28;21001;-77
2022/01/18 05:00:25;;;;;;;11.03;6.20;;;3.40;99.90;;;4.28;100.00;100094.91;5048846;28;20963;-78
2022/01/18 05:02:55;;;;;;;17.47;8.50;;;3.50;99.90;;;4.29;100.00;100097.41;5054909;28;20457;-78
2022/01/18 05:05:27;;;;;;;14.83;6.67;;;3.50;99.90;;;4.31;100.00;100100.72;5053602;28;20878;-78
2022/01/18 05:08:02;;;;;;;15.17;7.00;;;3.50;99.90;;;4.31;100.00;100100.72;5055292;28;20440;-78
2022/01/18 05:10:33;;;;;;;10.63;6.77;;;3.50;99.90;;;4.31;100.00;100108.50;5054892;28;20465;-78
2022/01/18 05:13:12;;;;;;;10.27;6.70;;;3.60;99.90;;;4.32;100.00;100117.94;5056360;28;20456;-78
2022/01/18 05:15:48;;;;;;;16.03;8.17;;;3.50;99.90;;;4.32;100.00;100117.09;5055225;28;20452;-77
2022/01/18 05:21:19;;;;;;;10.37;6.90;;;3.50;99.90;;;4.31;100.00;100116.28;5055789;28;20457;-76
2022/01/18 05:24:03;;;;;;;11.30;6.97;;;3.60;99.90;;;4.32;100.00;100123.13;5055085;28;20510;-77
2022/01/18 05:26:34;;;;;;;11.53;6.40;;;3.60;99.90;;;4.33;100.00;100114.44;5054315;28;20964;-77
2022/01/18 05:29:03;;;;;;;11.95;8.10;;;3.60;99.90;;;4.36;100.00;100116.81;5052681;28;20450;-76
2022/01/18 05:31:34;;;;;;;11.33;6.70;;;3.60;99.90;;;4.36;100.00;100124.59;5052806;28;20620;-77
2022/01/18 05:34:12;;;;;;;14.90;7.37;;;3.50;99.90;;;4.33;100.00;100119.63;5053433;28;20971;-76
2022/01/18 05:36:42;;;;;;;12.30;6.27;;;3.50;99.90;;;4.31;100.00;100121.44;5052105;28;20993;-76
2022/01/18 05:39:12;;;;;;;13.20;6.43;;;3.50;99.90;;;4.32;100.00;100125.72;5052227;28;20524;-76
2022/01/18 05:41:46;;;;;;;11.60;7.23;;;3.50;99.90;;;4.32;100.00;100127.47;5055023;28;20444;-76
2022/01/18 05:44:15;;;;;;;12.50;6.20;;;3.50;99.90;;;4.30;100.00;100125.00;5054493;28;20550;-76
2022/01/18 05:46:46;;;;;;;21.30;6.97;;;3.50;99.90;;;4.33;100.00;100129.97;5054460;28;20496;-76
2022/01/18 05:49:15;;;;;;;9.10;6.60;;;3.50;99.90;;;4.36;100.00;100139.28;5054044;28;20453;-76
2022/01/18 05:51:46;;;;;;;13.17;5.77;;;3.50;99.90;;;4.35;100.00;100133.28;5053416;28;20453;-76
2022/01/18 05:54:16;;;;;;;9.83;5.70;;;3.50;99.90;;;4.32;100.00;100135.22;5061095;28;20503;-76
2022/01/18 05:56:48;;;;;;;10.60;6.47;;;3.50;99.90;;;4.29;100.00;100141.44;5058788;28;20443;-76
2022/01/18 05:59:23;;;;;;;12.60;5.73;;;3.50;99.90;;;4.28;100.00;100142.34;5060774;28;20545;-76
2022/01/18 06:02:02;;;;;;;14.20;5.67;;;3.50;99.90;;;4.27;100.00;100145.88;5060946;28;20452;-76
2022/01/18 06:07:19;;;;;;;7.37;4.83;;;3.40;99.90;;;4.30;100.00;100161.25;5061312;28;20501;-76
2022/01/18 06:09:49;;;;;;;12.33;6.30;;;3.40;99.90;;;4.31;100.00;100162.88;5061226;28;20946;-76
2022/01/18 06:12:21;;;;;;;9.00;6.07;;;3.60;99.90;;;4.35;100.00;100164.34;5060036;28;20441;-77
2022/01/18 06:14:51;;;;;;;8.33;6.10;;;3.60;99.90;;;4.34;100.00;100169.66;5060609;28;20510;-76
2022/01/18 06:17:22;;;;;;;10.70;5.77;;;3.60;99.90;;;4.37;100.00;100167.66;5060831;28;20484;-76
2022/01/18 06:19:51;;;;;;;9.87;5.83;;;3.60;99.90;;;4.37;100.00;100167.66;5059143;28;20454;-76
2022/01/18 06:22:21;;;;;;;11.77;6.17;;;3.60;99.90;;;4.37;100.00;100170.25;5061139;28;20929;-76
2022/01/18 06:24:51;;;;;;;10.90;6.20;;;3.60;99.90;;;4.39;100.00;100178.78;5061065;28;20941;-76
2022/01/18 06:27:21;;;;;;;14.50;6.20;;;3.60;99.90;;;4.41;100.00;100176.91;5059337;28;20495;-76
2022/01/18 06:29:52;;;;;;;9.80;6.20;;;3.60;99.90;;;4.44;100.00;100174.13;5060171;28;20473;-76
2022/01/18 06:32:21;;;;;;;9.77;5.80;;;3.60;99.90;;;4.40;100.00;100177.88;5058940;28;20448;-76
2022/01/18 06:34:52;;;;;;;7.50;4.70;;;3.60;99.90;;;4.38;100.00;100173.69;5060345;28;20491;-76
2022/01/18 06:37:24;;;;;;;10.53;5.20;;;3.50;99.90;;;4.37;100.00;100169.47;5060222;28;20463;-76
2022/01/18 06:39:57;;;;;;;12.50;5.27;;;3.50;99.90;;;4.34;100.00;100169.66;5059403;28;20806;-76
2022/01/18 06:42:29;;;;;;;10.20;5.57;;;3.50;99.90;;;4.34;100.00;100172.25;5060110;28;20452;-76
2022/01/18 06:44:59;;;;;;;8.07;5.37;;;3.50;99.90;;;4.30;100.00;100169.00;5061530;28;20480;-76
2022/01/18 06:47:29;;;;;;;7.60;4.90;;;3.40;99.90;;;4.30;100.00;100179.38;5059987;28;20476;-76
2022/01/18 06:49:58;;;;;;;8.07;5.27;;;3.40;99.90;;;4.34;100.00;100187.78;5059803;28;20499;-76
2022/01/18 06:52:28;;;;;;;13.27;5.83;;;3.50;99.90;;;4.31;100.00;100185.34;5061505;28;20463;-76
2022/01/18 06:55:01;;;;;;;9.57;5.57;;;3.40;99.90;;;4.33;100.00;100186.09;5059647;28;20623;-76
2022/01/18 06:57:31;;;;;;;10.13;6.17;;;3.50;99.90;;;4.35;100.00;100195.44;5057777;28;20465;-76
2022/01/18 07:00:02;;;;;;;11.13;5.37;;;3.40;99.90;;;4.33;100.00;100191.28;5058201;28;20441;-76
2022/01/18 07:02:32;;;;;;;16.13;6.80;;;3.40;99.90;;;4.33;100.00;100199.06;5060067;28;20453;-76
2022/01/18 07:05:02;;;;;;;8.80;5.43;;;3.60;99.90;;;4.37;100.00;100205.72;5059785;28;20822;-76
2022/01/18 07:07:33;;;;;;;9.07;5.80;;;3.60;99.90;;;4.35;100.00;100200.63;5058228;28;21004;-76
2022/01/18 07:10:03;;;;;;;12.43;5.00;;;3.50;99.90;;;4.34;100.00;100204.13;5055288;28;20459;-76
2022/01/18 07:12:35;;;;;;;8.13;5.47;;;3.50;99.90;;;4.38;100.00;100199.59;5056772;28;20445;-76
2022/01/18 07:15:07;;;;;;;8.87;6.30;;;3.50;99.90;;;4.39;100.00;100203.84;5056839;28;20461;-76
2022/01/18 07:17:37;;;;;;;13.47;5.03;;;3.60;99.90;;;4.36;100.00;100201.44;5056583;28;20594;-76
2022/01/18 07:20:10;;;;;;;9.60;5.13;;;3.60;99.90;;;4.39;100.00;100201.25;5056847;28;20949;-76
2022/01/18 07:22:42;;;;;;;13.50;6.17;;;3.60;99.90;;;4.40;100.00;100202.94;5056038;28;20514;-76
2022/01/18 07:25:13;;;;;;;8.67;5.10;;;3.60;99.90;;;4.39;100.00;100201.25;5056851;28;20968;-76
2022/01/18 07:27:44;;;;;;;8.23;5.17;;;3.50;99.90;;;4.38;100.00;100199.59;5057135;28;20488;-76
2022/01/18 07:30:14;;;;;;;8.50;5.13;;;3.60;99.90;;;4.36;100.00;100202.28;5056135;28;20859;-76
2022/01/18 07:32:44;;;;;;;9.00;5.40;;;3.50;99.90;;;4.40;100.00;100200.34;5055096;28;20507;-76
2022/01/18 07:35:14;;;;;;;8.13;5.97;;;3.60;99.90;;;4.40;100.00;100197.75;5057535;28;20555;-76
2022/01/18 07:37:44;;;;;;;7.37;5.00;;;3.60;99.90;;;4.42;100.00;100188.94;5058964;28;20932;-76
2022/01/18 07:40:16;;;;;;;14.30;5.90;;;3.60;99.90;;;4.42;100.00;100193.28;5058820;28;20436;-76
2022/01/18 07:42:48;;;;;;;8.07;4.67;;;3.60;99.90;;;4.44;100.00;100191.47;5059217;28;20444;-76
2022/01/18 07:45:23;;;;;;;9.07;5.70;;;3.60;99.90;;;4.43;100.00;100197.56;5058327;28;21242;-76
2022/01/18 07:47:52;;;;;;;14.60;5.40;;;3.60;99.90;;;4.42;100.00;100194.13;5058753;28;20571;-76
2022/01/18 07:50:21;;;;;;;10.70;5.50;;;3.70;99.90;;;4.47;100.00;100206.81;5059680;28;20486;-76
2022/01/18 07:52:51;;;;;;;14.00;5.80;;;3.70;99.90;;;4.46;100.00;100205.97;5058754;28;20481;-76
2022/01/18 07:55:21;;;;;;;11.87;5.43;;;3.70;99.90;;;4.46;100.00;100205.97;5058752;28;20479;-76
2022/01/18 07:57:53;;;;;;;12.17;5.23;;;3.60;99.90;;;4.49;100.00;100203.19;5058379;28;20502;-76
2022/01/18 08:00:23;;;;;;;10.40;5.27;;;3.60;99.90;;;4.49;100.00;100213.53;5058877;28;20445;-76
2022/01/18 08:02:53;;;;;;;16.30;5.40;;;3.70;99.90;;;4.49;100.00;100218.72;5058510;28;20483;-76
2022/01/18 08:05:23;;;;;;;10.80;5.37;;;3.70;99.90;;;4.51;100.00;100223.81;5059272;28;20513;-76
2022/01/18 08:07:53;;;;;;;12.10;5.70;;;3.80;99.90;;;4.52;100.00;100231.47;5058183;28;21004;-76
2022/01/18 08:10:30;;;;;;;7.53;5.20;;;3.80;99.90;;;4.55;100.00;100236.47;5058838;28;20958;-76
2022/01/18 08:13:03;;;;;;;8.30;4.60;;;3.80;99.90;;;4.58;100.00;100231.09;5058074;28;20535;-76
2022/01/18 08:15:38;;;;;;;10.87;5.43;;;3.80;99.90;;;4.59;100.00;100234.53;5058033;28;20979;-76
2022/01/18 08:18:12;;;;;;;14.30;6.57;;;3.80;99.90;;;4.63;100.00;100227.38;5058217;28;20443;-76
2022/01/18 08:20:43;;;;;;;10.10;5.00;;;3.80;99.90;;;4.65;100.00;100222.97;5058764;28;20812;-76
2022/01/18 08:23:14;;;;;;;6.83;4.70;;;3.90;99.90;;;4.67;100.00;100221.94;5059743;28;20461;-76
2022/01/18 08:25:44;;;;;;;12.20;5.40;;;3.90;99.90;;;4.66;100.00;100219.44;5058760;28;20450;-76
2022/01/18 08:28:16;;;;;;;11.40;5.97;;;3.80;99.90;;;4.66;100.00;100222.00;5058241;28;20484;-76
2022/01/18 08:30:46;;;;;;;9.43;4.93;;;3.80;99.90;;;4.68;100.00;100220.19;5057532;28;20473;-76
2022/01/18 08:33:15;;;;;;;7.53;5.30;;;3.90;99.90;;;4.70;100.00;100228.66;5057804;28;20491;-76
2022/01/18 08:35:46;;;;;;;10.10;5.43;;;3.90;99.90;;;4.73;100.00;100225.88;5057638;28;20476;-76
2022/01/18 08:38:16;;;;;;;8.60;5.13;;;3.90;99.90;;;4.74;100.00;100228.41;5057246;28;20470;-76
2022/01/18 08:40:46;;;;;;;9.13;5.10;;;4.00;99.90;;;4.76;100.00;100231.72;5059064;28;20455;-76
2022/01/18 08:43:17;;;;;;;8.90;5.30;;;3.90;99.90;;;4.77;100.00;100230.78;5058610;28;20456;-76
2022/01/18 08:45:48;;;;;;;9.93;6.03;;;4.00;99.90;;;4.80;100.00;100233.19;5057956;28;20829;-76
2022/01/18 08:48:18;;;;;;;14.63;6.10;;;4.00;99.90;;;4.78;100.00;100229.88;5058103;28;20865;-76
2022/01/18 08:50:48;;;;;;;13.27;6.20;;;4.00;99.90;;;4.78;100.00;100229.88;5054528;28;20914;-76
2022/01/18 08:53:17;;;;;;;10.87;4.80;;;4.00;99.90;;;4.78;100.00;100235.06;5054338;28;20445;-76
2022/01/18 08:55:49;;;;;;;17.30;5.97;;;4.00;99.90;;;4.80;100.00;100233.19;5053385;28;20454;-76
2022/01/18 08:58:22;;;;;;;10.20;5.43;;;4.00;99.90;;;4.85;100.00;100232.91;5055650;28;20867;-76
2022/01/18 09:00:51;;;;;;;17.47;5.63;;;4.10;99.90;;;4.88;100.00;100228.34;5054911;28;20968;-76
2022/01/18 09:03:20;;;;;;;11.50;5.23;;;4.10;99.90;;;4.90;100.00;100229.09;5054983;28;20444;-76
2022/01/18 09:05:50;;;;;;;8.17;5.20;;;4.10;99.90;;;4.92;100.00;100223.81;5054083;28;20452;-76
2022/01/18 09:08:22;;;;;;;10.57;5.57;;;4.10;99.90;;;4.96;100.00;100222.69;5055089;28;20962;-76
2022/01/18 09:10:53;;;;;;;11.97;6.07;;;4.20;99.90;;;4.95;100.00;100228.78;5055450;28;20456;-76
2022/01/18 09:13:24;;;;;;;16.00;5.80;;;4.10;99.90;;;4.96;100.00;100233.06;5056132;28;21028;-76
2022/01/18 09:15:53;;;;;;;11.83;5.47;;;4.10;99.90;;;4.95;100.00;100226.22;5054453;28;20511;-76
2022/01/18 09:18:23;;;;;;;9.00;5.97;;;4.20;99.90;;;4.98;100.00;100236.38;5054328;28;20448;-76
2022/01/18 09:20:53;;;;;;;14.90;5.40;;;4.20;99.90;;;4.98;100.00;100229.44;5054529;28;20448;-76
2022/01/18 09:23:24;;;;;;;13.30;6.73;;;4.20;99.90;;;5.03;100.00;100236.94;5054649;28;20480;-76
2022/01/18 09:25:53;;;;;;;11.70;5.80;;;4.30;99.90;;;5.08;100.00;100233.09;5053139;28;20518;-76
2022/01/18 09:28:25;;;;;;;12.20;6.03;;;4.30;99.90;;;5.12;100.00;100233.75;5057325;28;20468;-76
2022/01/18 09:30:55;;;;;;;11.60;6.07;;;4.30;99.90;;;5.13;100.00;100238.00;5057486;28;20453;-76
2022/01/18 09:33:25;;;;;;;13.17;5.90;;;4.40;99.90;;;5.16;100.00;100240.41;5058700;28;20459;-77
2022/01/18 09:35:55;;;;;;;14.20;5.97;;;4.40;99.90;;;5.14;100.00;100244.81;5061517;28;20949;-76
2022/01/18 09:38:24;;;;;;;15.83;5.17;;;4.40;99.90;;;5.18;100.00;100242.88;5060798;28;20453;-76
2022/01/18 09:40:54;;;;;;;9.63;5.30;;;4.40;99.90;;;5.22;100.00;100246.94;5061100;28;20502;-76
2022/01/18 09:43:28;;;;;;;15.63;5.50;;;4.40;99.90;;;5.26;100.00;100241.47;5061688;28;20987;-77
2022/01/18 09:45:59;;;;;;;13.40;6.43;;;4.50;99.90;;;5.31;100.00;100239.38;5059939;28;21023;-76
2022/01/18 09:48:28;;;;;;;18.23;6.27;;;4.50;99.90;;;5.36;100.00;100252.91;5061716;28;20480;-76
2022/01/18 09:50:59;;;;;;;12.90;5.40;;;4.60;99.90;;;5.41;100.00;100250.84;5059455;28;20445;-76
2022/01/18 09:53:28;;;;;;;7.83;4.93;;;4.60;99.90;;;5.43;100.00;100251.56;5060664;28;20795;-77
2022/01/18 09:55:59;;;;;;;10.90;5.90;;;4.70;99.90;;;5.44;100.00;100255.84;5061355;28;20452;-76
2022/01/18 09:58:31;;;;;;;9.00;5.20;;;4.70;99.90;;;5.49;100.00;100252.91;5060098;28;21028;-76
2022/01/18 10:01:01;;;;;;;10.90;5.30;;;4.80;99.90;;;5.53;100.00;100250.03;5060289;28;21042;-76
2022/01/18 10:03:34;;;;;;;15.27;5.77;;;4.80;99.90;;;5.54;100.00;100246.53;5061322;28;20526;-76
2022/01/18 10:06:06;;;;;;;12.27;5.70;;;4.80;99.90;;;5.59;100.00;100249.63;5060971;28;20456;-76
2022/01/18 10:08:40;;;;;;;10.00;5.57;;;4.90;99.90;;;5.62;100.00;100247.78;5061312;28;20492;-76
2022/01/18 10:11:14;;;;;;;14.60;5.67;;;4.90;99.90;;;5.63;100.00;100247.66;5060457;28;20502;-76
2022/01/18 10:13:48;;;;;;;11.27;5.70;;;4.90;99.90;;;5.68;100.00;100247.38;5061489;28;20458;-76
2022/01/18 10:16:21;;;;;;;18.03;7.07;;;4.90;99.90;;;5.72;100.00;100251.44;5058835;28;20495;-76
2022/01/18 10:19:01;;;;;;;15.20;5.70;;;5.10;99.90;;;5.73;100.00;100248.72;5061599;28;20498;-76
2022/01/18 10:21:35;;;;;;;12.33;6.47;;;5.00;99.90;;;5.74;100.00;100249.53;5060546;28;20816;-76
2022/01/18 10:24:17;;;;;;;8.47;4.47;;;5.00;99.90;;;5.79;100.00;100244.91;5060217;28;20933;-76
2022/01/18 10:26:48;;;;;;;10.40;5.23;;;5.10;99.90;;;5.79;100.00;100239.69;5060100;28;20872;-76
2022/01/18 10:29:26;;;;;;;9.90;6.27;;;5.00;99.90;;;5.81;100.00;100243.00;5061070;28;20528;-76
2022/01/18 10:31:57;;;;;;;15.37;5.97;;;5.10;99.90;;;5.84;100.00;100241.03;5060561;28;20441;-76
2022/01/18 10:34:42;;;;;;;12.50;5.13;;;5.20;99.90;;;5.86;100.00;100241.81;5059501;28;20467;-76
2022/01/18 10:37:15;;;;;;;19.17;7.60;;;5.20;99.90;;;5.90;100.00;100243.25;5060830;28;20445;-76
2022/01/18 10:39:50;;;;;;;18.30;6.30;;;5.20;99.90;;;5.93;100.00;100230.09;5057987;28;20854;-76
2022/01/18 10:42:25;;;;;;;14.30;6.37;;;5.20;99.90;;;5.97;100.00;100222.94;5060578;28;20441;-76
2022/01/18 10:45:04;;;;;;;12.97;6.47;;;5.20;99.90;;;6.01;100.00;100220.00;5060189;28;20460;-76
2022/01/18 10:47:35;;;;;;;14.97;6.00;;;5.30;99.90;;;6.05;100.00;100221.44;5060903;28;20449;-76
2022/01/18 10:50:12;;;;;;;16.00;6.67;;;5.30;99.90;;;6.11;100.00;100225.38;5057664;28;20497;-76
2022/01/18 10:52:42;;;;;;;16.07;6.73;;;5.40;99.90;;;6.15;100.00;100216.44;5056569;28;20981;-76
2022/01/18 10:55:18;;;;;;;14.10;5.93;;;5.40;99.90;;;6.18;100.00;100221.44;5055210;28;20510;-76
2022/01/18 10:57:48;;;;;;;13.43;7.37;;;5.50;99.90;;;6.21;100.00;100216.06;5057382;28;20930;-76
2022/01/18 11:00:24;;;;;;;18.17;6.37;;;5.60;99.90;;;6.26;100.00;100210.53;5055754;28;20437;-76
2022/01/18 11:02:56;;;;;;;13.40;5.83;;;5.60;99.90;;;6.30;100.00;100207.63;5057019;28;20540;-76
2022/01/18 11:05:29;;;;;;;11.53;5.43;;;5.80;99.90;;;6.33;100.00;100202.19;5055636;28;20510;-76
2022/01/18 11:08:04;;;;;;;13.53;5.70;;;5.80;99.90;;;6.36;100.00;100199.38;5056896;28;20441;-76
2022/01/18 11:10:37;;;;;;;17.40;5.70;;;5.80;99.90;;;6.41;100.00;100193.88;5055662;28;21055;-76
2022/01/18 11:13:34;;;;;;;13.90;5.50;;;5.80;99.90;;;6.46;100.00;100194.38;5055758;28;20461;-76
2022/01/18 11:16:13;;;;;;;12.97;6.03;;;5.90;99.90;;;6.48;100.00;100190.75;5056110;28;20519;-76
2022/01/18 11:18:47;;;;;;;9.93;4.10;;;6.00;99.90;;;6.51;100.00;100181.91;5055051;28;20940;-76
2022/01/18 11:21:22;;;;;;;6.23;3.27;;;6.10;99.90;;;6.51;100.00;100174.09;5056469;28;20459;-76